Time;durP1;ratioP1;P1;durP2;ratioP2;P2;SDS_P1;SDS_P2;PMS_P1;PMS_P2;Temp;Humidity;BMP_temperature;BMP_pressure;BME280_temperature;BME280_humidity;BME280_pressure;Samples;Min_cycle;Max_cycle;Signal;HPM_P1;HPM_P2
2022/02/18 00:01:44;;;;;;;8.77;1.15;;;;;;;;;;5035573;28;20033;-85
2022/02/18 00:04:10;;;;;;;7.00;1.20;;;;;;;;;;5035411;28;20124;-89
2022/02/18 00:06:36;;;;;;;6.53;1.27;;;;;;;;;;5035181;28;20549;-89
2022/02/18 00:09:03;;;;;;;7.93;1.55;;;;;;;;;;5035130;28;20556;-89
2022/02/18 00:11:29;;;;;;;9.40;1.58;;;;;;;;;;5035305;28;20029;-88
2022/02/18 00:13:57;;;;;;;8.48;1.38;;;;;;;;;;5036165;28;20509;-89
2022/02/18 00:16:23;;;;;;;4.82;1.13;;;;;;;;;;5035382;28;20113;-87
2022/02/18 00:18:49;;;;;;;9.43;1.60;;;;;;;;;;5036272;28;20054;-78
2022/02/18 00:21:15;;;;;;;7.07;1.67;;;;;;;;;;5035001;28;20112;-89
2022/02/18 00:23:41;;;;;;;9.77;1.50;;;;;;;;;;5034874;28;20102;-90
2022/02/18 00:26:08;;;;;;;6.25;1.00;;;;;;;;;;5035118;28;20438;-90
2022/02/18 00:28:34;;;;;;;7.65;1.35;;;;;;;;;;5034895;28;20423;-79
2022/02/18 00:31:00;;;;;;;6.20;1.13;;;;;;;;;;5034615;28;20032;-89
2022/02/18 00:33:27;;;;;;;8.15;1.30;;;;;;;;;;5034711;28;20033;-78
2022/02/18 00:35:53;;;;;;;4.47;1.00;;;;;;;;;;5035981;28;20040;-89
2022/02/18 00:38:19;;;;;;;6.88;1.83;;;;;;;;;;5034488;28;20025;-88
2022/02/18 00:40:45;;;;;;;5.68;1.27;;;;;;;;;;5034679;28;20371;-79
2022/02/18 00:43:12;;;;;;;7.05;1.60;;;;;;;;;;5034770;28;20025;-90
2022/02/18 00:45:38;;;;;;;6.75;1.10;;;;;;;;;;5036069;28;20029;-89
2022/02/18 00:48:04;;;;;;;4.53;0.80;;;;;;;;;;5034862;28;20034;-80
2022/02/18 00:50:31;;;;;;;4.38;0.95;;;;;;;;;;5034586;28;20112;-88
2022/02/18 00:52:57;;;;;;;7.80;1.42;;;;;;;;;;5035426;28;20025;-90
2022/02/18 00:55:23;;;;;;;8.10;1.20;;;;;;;;;;5034456;28;20034;-91
2022/02/18 00:57:49;;;;;;;7.78;1.23;;;;;;;;;;5034896;28;20065;-87
2022/02/18 01:00:16;;;;;;;6.55;1.40;;;;;;;;;;5034872;28;20025;-88
2022/02/18 01:02:44;;;;;;;7.63;1.40;;;;;;;;;;5034419;28;20032;-89
2022/02/18 01:05:10;;;;;;;7.80;1.20;;;;;;;;;;5035619;28;20025;-91
2022/02/18 01:07:36;;;;;;;3.83;0.93;;;;;;;;;;5034378;28;20482;-90
2022/02/18 01:10:03;;;;;;;8.55;1.45;;;;;;;;;;5034462;28;20022;-91
2022/02/18 01:12:29;;;;;;;6.55;1.00;;;;;;;;;;5034060;28;20433;-90
2022/02/18 01:14:56;;;;;;;7.35;1.33;;;;;;;;;;5035353;28;20112;-90
2022/02/18 01:17:22;;;;;;;7.35;1.27;;;;;;;;;;5033960;28;20117;-84
2022/02/18 01:19:48;;;;;;;4.72;1.08;;;;;;;;;;5035159;28;20049;-89
2022/02/18 01:22:14;;;;;;;9.75;1.75;;;;;;;;;;5034068;28;20033;-89
2022/02/18 01:24:40;;;;;;;8.07;1.58;;;;;;;;;;5034002;28;20080;-90
2022/02/18 01:27:06;;;;;;;9.90;1.10;;;;;;;;;;5034061;28;20025;-90
2022/02/18 01:29:38;;;;;;;6.03;1.25;;;;;;;;;;5033960;28;20505;-90
2022/02/18 01:32:05;;;;;;;7.72;1.83;;;;;;;;;;5035622;28;20025;-91
2022/02/18 01:34:31;;;;;;;7.95;1.42;;;;;;;;;;5033719;28;20033;-90
2022/02/18 01:36:57;;;;;;;7.10;1.15;;;;;;;;;;5033760;28;20021;-89
2022/02/18 01:39:24;;;;;;;8.20;1.00;;;;;;;;;;5034721;28;20090;-88
2022/02/18 01:41:50;;;;;;;6.13;1.10;;;;;;;;;;5033645;28;20036;-90
2022/02/18 01:44:31;;;;;;;5.65;1.05;;;;;;;;;;5033250;28;20021;-89
2022/02/18 01:46:58;;;;;;;6.68;1.35;;;;;;;;;;5034451;28;20060;-90
2022/02/18 01:49:24;;;;;;;5.10;0.85;;;;;;;;;;5033540;28;20116;-81
2022/02/18 01:51:50;;;;;;;7.13;1.23;;;;;;;;;;5033597;28;20104;-90
2022/02/18 01:54:16;;;;;;;9.50;1.83;;;;;;;;;;5033041;28;20033;-89
2022/02/18 01:56:42;;;;;;;8.80;1.25;;;;;;;;;;5033277;28;20022;-87
2022/02/18 01:59:08;;;;;;;7.22;1.30;;;;;;;;;;5033215;28;20025;-91
2022/02/18 02:01:34;;;;;;;6.45;1.00;;;;;;;;;;5033367;28;20021;-83
2022/02/18 02:04:00;;;;;;;6.22;1.15;;;;;;;;;;5034604;28;20021;-90
2022/02/18 02:06:27;;;;;;;5.28;1.20;;;;;;;;;;5034272;28;20029;-90
2022/02/18 02:08:53;;;;;;;7.57;1.60;;;;;;;;;;5034348;28;20026;-79
2022/02/18 02:11:20;;;;;;;3.92;1.42;;;;;;;;;;5033165;28;20029;-90
2022/02/18 02:13:46;;;;;;;10.05;1.35;;;;;;;;;;5033064;28;20124;-89
2022/02/18 02:16:13;;;;;;;7.45;1.40;;;;;;;;;;5034291;28;20025;-85
2022/02/18 02:18:40;;;;;;;7.50;1.50;;;;;;;;;;5032904;28;20120;-89
2022/02/18 02:21:06;;;;;;;6.97;0.98;;;;;;;;;;5032580;28;20048;-82
2022/02/18 02:23:33;;;;;;;9.20;1.75;;;;;;;;;;5032607;28;20053;-85
2022/02/18 02:25:59;;;;;;;5.10;1.25;;;;;;;;;;5032915;28;20039;-90
2022/02/18 02:28:26;;;;;;;8.10;1.45;;;;;;;;;;5032819;28;20029;-88
2022/02/18 02:30:52;;;;;;;4.53;1.00;;;;;;;;;;5033055;28;20025;-89
2022/02/18 02:33:19;;;;;;;5.95;0.95;;;;;;;;;;5032970;28;20026;-90
2022/02/18 02:35:45;;;;;;;5.25;0.98;;;;;;;;;;5032858;28;20083;-79
2022/02/18 02:38:11;;;;;;;9.93;1.20;;;;;;;;;;5032640;28;20025;-90
2022/02/18 02:40:37;;;;;;;6.22;1.10;;;;;;;;;;5032774;28;20049;-90
2022/02/18 02:43:04;;;;;;;6.70;1.25;;;;;;;;;;5032600;28;20040;-89
2022/02/18 02:45:30;;;;;;;9.18;1.58;;;;;;;;;;5033053;28;20124;-90
2022/02/18 02:47:56;;;;;;;7.70;1.10;;;;;;;;;;5032648;28;20057;-88
2022/02/18 02:50:22;;;;;;;8.73;1.00;;;;;;;;;;5033580;28;20029;-90
2022/02/18 02:52:48;;;;;;;4.53;1.00;;;;;;;;;;5032458;28;20030;-79
2022/02/18 02:55:15;;;;;;;10.30;1.23;;;;;;;;;;5032652;28;20189;-88
2022/02/18 02:57:42;;;;;;;6.03;1.00;;;;;;;;;;5033386;28;20034;-90
2022/02/18 03:00:08;;;;;;;5.00;0.90;;;;;;;;;;5032361;28;20474;-79
2022/02/18 03:02:34;;;;;;;7.07;1.20;;;;;;;;;;5033336;28;20032;-90
2022/02/18 03:05:01;;;;;;;6.72;1.00;;;;;;;;;;5032657;28;20033;-87
2022/02/18 03:07:27;;;;;;;4.78;0.70;;;;;;;;;;5036241;28;20037;-79
2022/02/18 03:09:53;;;;;;;7.75;1.23;;;;;;;;;;5036335;28;20026;-88
2022/02/18 03:12:19;;;;;;;10.80;1.65;;;;;;;;;;5036849;28;20029;-81
2022/02/18 03:14:46;;;;;;;5.85;0.90;;;;;;;;;;5035972;28;20033;-89
2022/02/18 03:17:12;;;;;;;9.35;1.05;;;;;;;;;;5036289;28;20026;-90
2022/02/18 03:19:38;;;;;;;8.27;1.15;;;;;;;;;;5036181;28;20075;-89
2022/02/18 03:22:06;;;;;;;6.85;1.40;;;;;;;;;;5035909;28;20026;-88
2022/02/18 03:24:33;;;;;;;4.43;0.95;;;;;;;;;;5036207;28;20064;-89
2022/02/18 03:26:59;;;;;;;5.75;0.93;;;;;;;;;;5036230;28;20734;-88
2022/02/18 03:29:26;;;;;;;5.50;0.77;;;;;;;;;;5035972;28;20017;-91
2022/02/18 03:31:53;;;;;;;5.75;0.82;;;;;;;;;;5036181;28;20083;-84
2022/02/18 03:34:19;;;;;;;6.65;1.30;;;;;;;;;;5035819;28;20041;-89
2022/02/18 03:36:46;;;;;;;6.70;1.10;;;;;;;;;;5036017;28;20044;-89
2022/02/18 03:39:12;;;;;;;4.93;1.15;;;;;;;;;;5036813;28;20522;-89
2022/02/18 03:41:38;;;;;;;6.00;0.63;;;;;;;;;;5035853;28;20426;-84
2022/02/18 03:44:08;;;;;;;6.70;1.00;;;;;;;;;;5036916;28;20033;-88
2022/02/18 03:46:35;;;;;;;9.18;1.42;;;;;;;;;;5035673;28;20032;-88
2022/02/18 03:49:01;;;;;;;9.88;1.02;;;;;;;;;;5035309;28;20094;-89
2022/02/18 03:51:27;;;;;;;5.05;1.15;;;;;;;;;;5035451;28;20025;-89
2022/02/18 03:53:53;;;;;;;3.63;1.00;;;;;;;;;;5035458;28;20466;-89
2022/02/18 03:56:20;;;;;;;9.38;1.35;;;;;;;;;;5035357;28;20140;-89
2022/02/18 03:58:46;;;;;;;6.35;1.20;;;;;;;;;;5035161;28;20033;-79
2022/02/18 04:01:12;;;;;;;11.15;1.63;;;;;;;;;;5036707;28;20041;-89
2022/02/18 04:03:41;;;;;;;6.95;1.15;;;;;;;;;;5035552;28;20030;-90
2022/02/18 04:06:07;;;;;;;7.88;1.38;;;;;;;;;;5035546;28;20049;-79
2022/02/18 04:08:33;;;;;;;6.43;1.23;;;;;;;;;;5042763;28;20030;-91
2022/02/18 04:11:00;;;;;;;9.70;1.60;;;;;;;;;;5046671;28;20017;-89
2022/02/18 04:13:26;;;;;;;5.57;1.25;;;;;;;;;;5029734;28;20145;-91
2022/02/18 04:15:52;;;;;;;9.77;1.10;;;;;;;;;;5037888;28;20056;-79
2022/02/18 04:18:18;;;;;;;4.03;0.80;;;;;;;;;;5037036;28;20025;-90
2022/02/18 04:20:44;;;;;;;7.00;0.77;;;;;;;;;;5036265;28;20030;-90
2022/02/18 04:23:11;;;;;;;5.47;1.23;;;;;;;;;;5034613;28;20045;-78
2022/02/18 04:25:37;;;;;;;5.35;1.10;;;;;;;;;;5034872;28;20030;-89
2022/02/18 04:28:07;;;;;;;3.92;0.73;;;;;;;;;;5035227;28;20025;-89
2022/02/18 04:30:34;;;;;;;5.63;1.05;;;;;;;;;;5034897;28;20117;-90
2022/02/18 04:33:00;;;;;;;9.13;1.00;;;;;;;;;;5035979;28;20398;-90
2022/02/18 04:35:26;;;;;;;3.85;0.85;;;;;;;;;;5034437;28;20121;-90
2022/02/18 04:37:53;;;;;;;6.93;1.30;;;;;;;;;;5034905;28;20061;-89
2022/02/18 04:40:19;;;;;;;4.38;1.23;;;;;;;;;;5034773;28;20029;-89
2022/02/18 04:42:46;;;;;;;4.50;1.23;;;;;;;;;;5034651;28;20088;-89
2022/02/18 04:45:13;;;;;;;7.57;1.00;;;;;;;;;;5034760;28;20021;-89
2022/02/18 04:47:39;;;;;;;5.82;1.10;;;;;;;;;;5034761;28;20063;-82
2022/02/18 04:50:06;;;;;;;11.00;1.13;;;;;;;;;;5034167;28;20075;-90
2022/02/18 04:52:33;;;;;;;7.10;1.27;;;;;;;;;;5034324;28;20033;-91
2022/02/18 04:55:00;;;;;;;12.05;1.65;;;;;;;;;;5033857;28;20033;-80
2022/02/18 04:57:27;;;;;;;4.13;1.00;;;;;;;;;;5034840;28;20025;-79
2022/02/18 04:59:53;;;;;;;8.00;1.35;;;;;;;;;;5034250;28;20029;-90
2022/02/18 05:02:19;;;;;;;9.68;1.27;;;;;;;;;;5034111;28;20029;-80
2022/02/18 05:04:45;;;;;;;6.15;1.08;;;;;;;;;;5033912;28;20022;-92
2022/02/18 05:07:12;;;;;;;9.75;1.25;;;;;;;;;;5034206;28;20037;-90
2022/02/18 05:09:38;;;;;;;7.43;1.17;;;;;;;;;;5033929;28;20029;-90
2022/02/18 05:12:04;;;;;;;8.35;1.10;;;;;;;;;;5034129;28;20036;-79
2022/02/18 05:14:30;;;;;;;6.68;1.38;;;;;;;;;;5032976;28;20037;-80
2022/02/18 05:16:56;;;;;;;5.28;1.15;;;;;;;;;;5032822;28;20037;-79
2022/02/18 05:19:22;;;;;;;5.60;1.20;;;;;;;;;;5034212;28;20028;-78
2022/02/18 05:21:48;;;;;;;3.97;0.90;;;;;;;;;;5034271;28;20052;-77
2022/02/18 05:24:14;;;;;;;3.50;1.15;;;;;;;;;;5032579;28;20470;-79
2022/02/18 05:26:41;;;;;;;10.65;1.65;;;;;;;;;;5034158;28;20022;-79
2022/02/18 05:29:07;;;;;;;6.95;1.10;;;;;;;;;;5031926;28;20079;-78
2022/02/18 05:31:33;;;;;;;9.02;1.00;;;;;;;;;;5032788;28;20423;-80
2022/02/18 05:33:59;;;;;;;7.43;1.55;;;;;;;;;;5033842;28;20048;-79
2022/02/18 05:36:27;;;;;;;5.47;1.05;;;;;;;;;;5032554;28;20112;-79
2022/02/18 05:38:53;;;;;;;4.25;0.98;;;;;;;;;;5033949;28;20104;-80
2022/02/18 05:41:21;;;;;;;6.60;1.05;;;;;;;;;;5033852;28;20163;-80
2022/02/18 05:43:48;;;;;;;10.57;1.40;;;;;;;;;;5032472;28;20029;-78
2022/02/18 05:46:14;;;;;;;6.47;0.98;;;;;;;;;;5032460;28;20029;-80
2022/02/18 05:48:40;;;;;;;6.90;1.30;;;;;;;;;;5031368;28;20076;-79
2022/02/18 05:51:06;;;;;;;3.85;0.85;;;;;;;;;;5065438;28;20048;-79
2022/02/18 05:53:33;;;;;;;6.75;1.15;;;;;;;;;;5065333;28;20474;-79
2022/02/18 05:55:59;;;;;;;5.80;1.02;;;;;;;;;;5033398;28;20033;-79
2022/02/18 05:58:25;;;;;;;8.32;0.90;;;;;;;;;;5065469;28;20390;-80
2022/02/18 06:00:51;;;;;;;8.13;1.90;;;;;;;;;;5065122;28;20079;-78
2022/02/18 06:03:18;;;;;;;8.85;1.45;;;;;;;;;;5065191;28;20037;-79
2022/02/18 06:05:44;;;;;;;4.47;1.15;;;;;;;;;;5065236;28;20036;-78
2022/02/18 06:08:10;;;;;;;1.85;0.50;;;;;;;;;;5065213;28;20413;-81
2022/02/18 06:10:36;;;;;;;4.50;0.77;;;;;;;;;;5033139;28;20064;-78
2022/02/18 06:13:03;;;;;;;5.80;0.88;;;;;;;;;;5065129;28;20470;-79
2022/02/18 06:15:29;;;;;;;5.45;1.58;;;;;;;;;;5065283;28;20470;-79
2022/02/18 06:17:55;;;;;;;2.28;0.30;;;;;;;;;;5065103;28;20044;-79
2022/02/18 06:20:21;;;;;;;5.00;0.75;;;;;;;;;;5033036;28;20486;-79
2022/02/18 06:22:47;;;;;;;4.07;0.90;;;;;;;;;;5064624;28;20470;-79
2022/02/18 06:25:13;;;;;;;3.83;0.70;;;;;;;;;;5064633;28;20164;-80
2022/02/18 06:27:39;;;;;;;4.65;0.75;;;;;;;;;;5065220;28;20025;-78
2022/02/18 06:30:06;;;;;;;5.80;0.85;;;;;;;;;;5032978;28;20021;-79
2022/02/18 06:32:32;;;;;;;4.65;0.90;;;;;;;;;;5064871;28;20511;-78
2022/02/18 06:34:58;;;;;;;4.07;0.60;;;;;;;;;;5064895;28;20033;-79
2022/02/18 06:37:25;;;;;;;2.88;0.63;;;;;;;;;;5064611;28;20025;-79
2022/02/18 06:39:51;;;;;;;5.40;0.90;;;;;;;;;;5034233;28;20030;-80
2022/02/18 06:42:18;;;;;;;6.00;1.00;;;;;;;;;;5068696;28;20430;-79
2022/02/18 06:44:44;;;;;;;3.72;0.70;;;;;;;;;;5069069;28;20029;-79
2022/02/18 06:47:10;;;;;;;4.88;0.80;;;;;;;;;;5036775;28;20071;-79
2022/02/18 06:49:36;;;;;;;3.60;0.82;;;;;;;;;;5036650;28;20032;-78
2022/02/18 06:52:03;;;;;;;6.13;1.15;;;;;;;;;;5068921;28;20041;-78
2022/02/18 06:54:29;;;;;;;6.45;0.80;;;;;;;;;;5036715;28;20069;-79
2022/02/18 06:57:00;;;;;;;2.97;0.88;;;;;;;;;;5068680;28;20079;-80
2022/02/18 06:59:26;;;;;;;3.88;0.60;;;;;;;;;;5069001;28;20219;-81
2022/02/18 07:01:54;;;;;;;4.15;0.73;;;;;;;;;;5068607;28;20025;-80
2022/02/18 07:04:20;;;;;;;3.97;1.05;;;;;;;;;;5068813;28;20061;-81
2022/02/18 07:06:47;;;;;;;4.72;1.00;;;;;;;;;;5068754;28;20021;-81
2022/02/18 07:09:13;;;;;;;7.53;1.10;;;;;;;;;;5068557;28;20032;-81
2022/02/18 07:11:40;;;;;;;4.05;0.85;;;;;;;;;;5068460;28;20029;-81
2022/02/18 07:14:09;;;;;;;3.70;0.65;;;;;;;;;;5036574;28;20032;-79
2022/02/18 07:16:41;;;;;;;3.17;0.70;;;;;;;;;;5067907;28;20462;-79
2022/02/18 07:19:09;;;;;;;5.97;1.30;;;;;;;;;;5068098;28;20144;-78
2022/02/18 07:21:35;;;;;;;8.77;1.88;;;;;;;;;;5068460;28;20064;-78
2022/02/18 07:24:01;;;;;;;7.03;1.55;;;;;;;;;;5036158;28;20056;-80
2022/02/18 07:26:27;;;;;;;11.27;3.95;;;;;;;;;;5067917;28;20482;-79
2022/02/18 07:28:53;;;;;;;10.45;3.15;;;;;;;;;;5068050;28;20021;-79
2022/02/18 07:31:19;;;;;;;6.55;1.63;;;;;;;;;;5067700;28;20057;-78
2022/02/18 07:33:45;;;;;;;4.30;1.38;;;;;;;;;;5068063;28;20040;-79
2022/02/18 07:36:11;;;;;;;7.85;1.48;;;;;;;;;;5068143;28;20025;-79
2022/02/18 07:38:37;;;;;;;6.95;2.10;;;;;;;;;;5067723;28;20025;-78
2022/02/18 07:41:03;;;;;;;8.60;2.63;;;;;;;;;;5067686;28;20040;-80
2022/02/18 07:43:30;;;;;;;6.72;1.92;;;;;;;;;;5067820;28;20040;-78
2022/02/18 07:45:58;;;;;;;24.40;7.78;;;;;;;;;;5068173;28;20030;-82
2022/02/18 07:48:25;;;;;;;26.17;8.27;;;;;;;;;;5067546;28;20116;-82
2022/02/18 07:50:51;;;;;;;22.85;7.40;;;;;;;;;;5067580;28;20030;-81
2022/02/18 07:53:17;;;;;;;8.48;1.38;;;;;;;;;;5067448;28;20021;-80
2022/02/18 07:55:43;;;;;;;12.18;1.60;;;;;;;;;;5035840;28;20025;-80
2022/02/18 07:58:13;;;;;;;3.95;1.02;;;;;;;;;;5035936;28;20026;-79
2022/02/18 08:00:39;;;;;;;5.63;1.20;;;;;;;;;;5067423;28;20021;-79
2022/02/18 08:03:05;;;;;;;9.27;1.30;;;;;;;;;;5067608;28;20484;-79
2022/02/18 08:05:31;;;;;;;8.65;0.82;;;;;;;;;;5067680;28;20119;-79
2022/02/18 08:07:58;;;;;;;7.50;1.30;;;;;;;;;;5067722;28;20034;-79
2022/02/18 08:10:28;;;;;;;7.20;1.70;;;;;;;;;;5067869;28;20022;-79
2022/02/18 08:12:54;;;;;;;13.63;1.27;;;;;;;;;;5067535;28;20032;-78
2022/02/18 08:15:21;;;;;;;7.57;1.45;;;;;;;;;;5067447;28;20061;-80
2022/02/18 08:17:47;;;;;;;5.20;1.40;;;;;;;;;;5035871;28;20389;-79
2022/02/18 08:20:13;;;;;;;8.95;1.15;;;;;;;;;;5067621;28;20036;-79
2022/02/18 08:22:40;;;;;;;4.97;1.25;;;;;;;;;;5035470;28;20060;-79
2022/02/18 08:25:07;;;;;;;12.30;2.25;;;;;;;;;;5035417;28;20048;-79
2022/02/18 08:27:33;;;;;;;12.63;2.50;;;;;;;;;;5066931;28;20021;-79
2022/02/18 08:30:00;;;;;;;12.35;2.45;;;;;;;;;;5067377;28;20057;-80
2022/02/18 08:32:26;;;;;;;10.43;2.60;;;;;;;;;;5035070;28;20022;-80
2022/02/18 08:34:52;;;;;;;16.80;2.30;;;;;;;;;;5067011;28;20052;-79
2022/02/18 08:37:18;;;;;;;7.45;2.13;;;;;;;;;;5035147;28;20033;-79
2022/02/18 08:39:44;;;;;;;9.80;1.70;;;;;;;;;;5066449;28;20040;-80
2022/02/18 08:42:11;;;;;;;8.40;1.63;;;;;;;;;;5034809;28;20041;-79
2022/02/18 08:44:37;;;;;;;8.77;1.50;;;;;;;;;;5066780;28;20036;-79
2022/02/18 08:47:03;;;;;;;6.85;1.30;;;;;;;;;;5034804;28;20021;-79
2022/02/18 08:49:29;;;;;;;9.43;1.63;;;;;;;;;;5034713;28;20038;-79
2022/02/18 08:51:56;;;;;;;6.93;1.67;;;;;;;;;;5066327;28;20035;-78
2022/02/18 08:54:22;;;;;;;5.72;1.48;;;;;;;;;;5066812;28;20433;-79
2022/02/18 08:56:48;;;;;;;5.00;0.93;;;;;;;;;;5066763;28;20642;-79
2022/02/18 08:59:14;;;;;;;7.68;1.30;;;;;;;;;;5066956;28;20397;-78
2022/02/18 09:01:40;;;;;;;3.40;0.80;;;;;;;;;;5064510;28;20079;-79
2022/02/18 09:04:07;;;;;;;5.70;0.93;;;;;;;;;;5027748;28;20068;-80
2022/02/18 09:06:34;;;;;;;5.05;1.15;;;;;;;;;;5033291;28;20108;-81
2022/02/18 09:09:00;;;;;;;2.47;0.70;;;;;;;;;;5034573;28;20033;-86
2022/02/18 09:11:26;;;;;;;4.15;0.70;;;;;;;;;;5034749;28;20025;-81
2022/02/18 09:13:52;;;;;;;5.75;0.95;;;;;;;;;;5032723;28;20037;-81
2022/02/18 09:16:20;;;;;;;2.00;0.73;;;;;;;;;;5034553;28;20029;-81
2022/02/18 09:18:46;;;;;;;5.75;0.90;;;;;;;;;;5033035;28;20091;-81
2022/02/18 09:21:12;;;;;;;4.90;1.10;;;;;;;;;;5034236;28;20059;-81
2022/02/18 09:23:38;;;;;;;2.30;0.63;;;;;;;;;;5032144;28;20132;-79
2022/02/18 09:26:04;;;;;;;4.75;0.95;;;;;;;;;;5032505;28;20041;-80
2022/02/18 09:28:30;;;;;;;4.60;1.02;;;;;;;;;;5033030;28;20028;-81
2022/02/18 09:30:57;;;;;;;3.92;0.98;;;;;;;;;;5032677;28;20026;-80
2022/02/18 09:33:24;;;;;;;3.78;1.20;;;;;;;;;;5032593;28;20108;-81
2022/02/18 09:35:50;;;;;;;5.18;1.23;;;;;;;;;;5034118;28;20044;-79
2022/02/18 09:38:17;;;;;;;4.47;0.98;;;;;;;;;;5032807;28;20478;-81
2022/02/18 09:40:43;;;;;;;5.78;1.33;;;;;;;;;;5022906;28;20045;-78
2022/02/18 09:43:10;;;;;;;7.75;1.10;;;;;;;;;;5014194;28;20034;-80
2022/02/18 09:45:36;;;;;;;4.80;1.08;;;;;;;;;;5014284;28;20029;-80
2022/02/18 09:48:02;;;;;;;7.13;1.17;;;;;;;;;;5014677;28;20076;-80
2022/02/18 09:50:32;;;;;;;6.15;0.95;;;;;;;;;;5014765;28;20028;-80
2022/02/18 09:52:58;;;;;;;11.27;3.30;;;;;;;;;;5029425;28;20025;-79
2022/02/18 09:55:24;;;;;;;5.97;0.98;;;;;;;;;;5021739;28;20049;-79
2022/02/18 09:57:54;;;;;;;6.22;1.10;;;;;;;;;;5012993;28;20022;-80
2022/02/18 10:00:21;;;;;;;6.72;0.90;;;;;;;;;;5012510;28;20057;-80
2022/02/18 10:02:48;;;;;;;6.10;0.93;;;;;;;;;;5012761;28;20022;-79
2022/02/18 10:05:15;;;;;;;7.15;1.00;;;;;;;;;;5012597;28;20029;-81
2022/02/18 10:08:04;;;;;;;3.92;1.13;;;;;;;;;;5012421;28;20049;-79
2022/02/18 10:10:31;;;;;;;7.30;1.35;;;;;;;;;;5007342;28;20368;-79
2022/02/18 10:12:57;;;;;;;2.92;0.70;;;;;;;;;;5012117;28;20041;-82
2022/02/18 10:15:24;;;;;;;10.95;2.60;;;;;;;;;;5011959;28;20080;-81
2022/02/18 10:17:50;;;;;;;5.85;1.10;;;;;;;;;;5012176;28;20018;-80
2022/02/18 10:20:18;;;;;;;6.47;1.38;;;;;;;;;;5012019;28;20084;-79
2022/02/18 10:22:58;;;;;;;6.70;1.15;;;;;;;;;;5013117;28;20479;-83
2022/02/18 10:25:30;;;;;;;9.50;4.18;;;;;;;;;;5012293;28;20096;-79
2022/02/18 10:27:57;;;;;;;37.42;18.20;;;;;;;;;;5012221;28;20029;-80
2022/02/18 10:30:25;;;;;;;3.90;1.15;;;;;;;;;;5013107;28;20530;-79
2022/02/18 10:32:55;;;;;;;7.43;1.25;;;;;;;;;;5012018;28;20030;-79
2022/02/18 10:35:31;;;;;;;4.20;0.85;;;;;;;;;;5012115;28;20046;-78
2022/02/18 10:37:57;;;;;;;3.00;0.90;;;;;;;;;;5011979;28;20054;-78
2022/02/18 10:40:24;;;;;;;4.45;0.80;;;;;;;;;;5012055;28;20030;-78
2022/02/18 10:42:52;;;;;;;9.88;1.55;;;;;;;;;;5012022;28;20037;-77
2022/02/18 10:45:19;;;;;;;7.72;2.10;;;;;;;;;;5013353;28;20022;-77
2022/02/18 10:47:46;;;;;;;7.20;2.70;;;;;;;;;;5012010;28;20490;-78
2022/02/18 10:50:20;;;;;;;6.63;1.15;;;;;;;;;;5012096;28;20118;-80
2022/02/18 10:53:10;;;;;;;7.18;1.50;;;;;;;;;;5012007;28;20025;-80
2022/02/18 10:55:48;;;;;;;3.00;1.00;;;;;;;;;;5006617;28;20406;-81
2022/02/18 10:58:19;;;;;;;4.20;1.17;;;;;;;;;;5013179;28;20494;-80
2022/02/18 11:00:45;;;;;;;6.68;1.13;;;;;;;;;;5013352;28;20030;-79
2022/02/18 11:03:24;;;;;;;6.65;1.10;;;;;;;;;;5011744;28;20037;-79
2022/02/18 11:05:50;;;;;;;2.75;0.88;;;;;;;;;;5012058;28;20118;-78
2022/02/18 11:08:27;;;;;;;3.15;0.88;;;;;;;;;;5012784;28;20065;-77
2022/02/18 11:10:53;;;;;;;7.35;1.65;;;;;;;;;;5012816;28;20101;-78
2022/02/18 11:13:19;;;;;;;6.38;1.23;;;;;;;;;;5012731;28;20029;-79
2022/02/18 11:15:46;;;;;;;4.53;1.60;;;;;;;;;;5011541;28;20124;-80
2022/02/18 11:18:12;;;;;;;13.15;4.13;;;;;;;;;;5011593;28;20118;-79
2022/02/18 11:20:39;;;;;;;6.57;1.50;;;;;;;;;;5014499;28;20104;-78
2022/02/18 11:23:07;;;;;;;4.40;1.27;;;;;;;;;;5030351;28;20045;-79
2022/02/18 11:25:34;;;;;;;7.82;1.35;;;;;;;;;;5027153;28;20092;-78
2022/02/18 11:28:01;;;;;;;10.30;1.80;;;;;;;;;;5066818;28;20032;-80
2022/02/18 11:30:27;;;;;;;8.32;2.85;;;;;;;;;;5035404;28;20028;-81
2022/02/18 11:33:11;;;;;;;12.50;3.67;;;;;;;;;;5034135;28;20037;-79
2022/02/18 11:35:37;;;;;;;6.25;1.60;;;;;;;;;;5034659;28;20029;-79
2022/02/18 11:38:03;;;;;;;14.65;3.92;;;;;;;;;;5036054;28;20053;-80
2022/02/18 11:40:43;;;;;;;10.68;4.35;;;;;;;;;;5036326;28;20439;-82
2022/02/18 11:43:27;;;;;;;13.75;3.92;;;;;;;;;;5034443;28;20425;-79
2022/02/18 11:45:57;;;;;;;9.82;1.63;;;;;;;;;;5034420;28;20025;-80
2022/02/18 11:48:38;;;;;;;6.70;1.33;;;;;;;;;;5034416;28;20029;-79
2022/02/18 11:51:08;;;;;;;5.95;1.42;;;;;;;;;;5068425;28;20077;-82
2022/02/18 11:53:41;;;;;;;9.85;1.02;;;;;;;;;;5067371;28;20034;-82
2022/02/18 11:56:08;;;;;;;9.55;1.15;;;;;;;;;;5066555;28;20021;-80
2022/02/18 11:58:50;;;;;;;14.95;1.00;;;;;;;;;;5035071;28;20033;-79
2022/02/18 12:01:17;;;;;;;9.43;1.23;;;;;;;;;;5032624;28;20056;-78
2022/02/18 12:04:03;;;;;;;7.22;1.10;;;;;;;;;;5065449;28;20033;-79
2022/02/18 12:06:30;;;;;;;7.20;1.50;;;;;;;;;;5033993;28;20021;-80
2022/02/18 12:08:57;;;;;;;6.80;1.42;;;;;;;;;;5034283;28;20389;-81
2022/02/18 12:11:23;;;;;;;5.10;1.20;;;;;;;;;;5035701;28;20029;-81
2022/02/18 12:13:53;;;;;;;5.85;1.42;;;;;;;;;;5035381;28;20029;-81
2022/02/18 12:16:19;;;;;;;5.85;1.08;;;;;;;;;;5034151;28;20481;-81
2022/02/18 12:19:09;;;;;;;10.13;1.48;;;;;;;;;;5034272;28;20034;-81
2022/02/18 12:22:01;;;;;;;6.63;1.17;;;;;;;;;;5024140;28;20100;-80
2022/02/18 12:24:33;;;;;;;7.05;1.15;;;;;;;;;;5032464;28;20486;-81
2022/02/18 12:27:18;;;;;;;9.93;1.48;;;;;;;;;;5034225;28;20366;-81
2022/02/18 12:29:44;;;;;;;6.43;1.20;;;;;;;;;;5035383;28;20072;-81
2022/02/18 12:32:10;;;;;;;5.50;1.00;;;;;;;;;;5033808;28;20033;-81
2022/02/18 12:34:38;;;;;;;6.82;1.42;;;;;;;;;;5034873;28;20465;-81
2022/02/18 12:37:05;;;;;;;10.43;1.20;;;;;;;;;;5035030;28;20460;-81
2022/02/18 12:39:42;;;;;;;10.43;1.00;;;;;;;;;;5035118;28;20474;-81
2022/02/18 12:42:14;;;;;;;12.52;1.35;;;;;;;;;;5033787;28;20029;-80
2022/02/18 12:44:47;;;;;;;7.32;1.13;;;;;;;;;;5033523;28;20017;-80
2022/02/18 12:47:20;;;;;;;7.45;0.98;;;;;;;;;;5033587;28;20040;-81
2022/02/18 12:49:47;;;;;;;4.32;1.00;;;;;;;;;;5033683;28;20029;-80
2022/02/18 12:52:13;;;;;;;5.40;1.05;;;;;;;;;;5033536;28;20430;-81
2022/02/18 12:54:49;;;;;;;11.07;1.80;;;;;;;;;;5034750;28;20033;-80
2022/02/18 12:57:20;;;;;;;9.23;1.58;;;;;;;;;;5033440;28;20083;-80
2022/02/18 12:59:47;;;;;;;11.32;1.55;;;;;;;;;;5033288;28;20490;-81
2022/02/18 13:02:32;;;;;;;5.25;1.02;;;;;;;;;;5034645;28;20041;-80
2022/02/18 13:05:27;;;;;;;7.00;1.23;;;;;;;;;;5034631;28;20029;-79
2022/02/18 13:08:00;;;;;;;9.00;1.38;;;;;;;;;;5033165;28;20041;-81
2022/02/18 13:10:39;;;;;;;5.23;1.30;;;;;;;;;;5033106;28;20541;-84
2022/02/18 13:13:10;;;;;;;7.95;1.33;;;;;;;;;;5034359;28;20057;-81
2022/02/18 13:15:36;;;;;;;6.68;1.00;;;;;;;;;;5033037;28;20084;-81
2022/02/18 13:18:03;;;;;;;10.63;1.40;;;;;;;;;;5033100;28;20040;-81
2022/02/18 13:20:36;;;;;;;4.25;0.80;;;;;;;;;;5032865;28;20118;-81
2022/02/18 13:23:07;;;;;;;9.90;1.27;;;;;;;;;;5034024;28;20049;-81
2022/02/18 13:25:35;;;;;;;3.20;0.98;;;;;;;;;;5033028;28;20018;-84
2022/02/18 13:28:03;;;;;;;9.40;1.23;;;;;;;;;;5034113;28;20025;-80
2022/02/18 13:30:31;;;;;;;9.88;1.45;;;;;;;;;;5032852;28;20031;-82
2022/02/18 13:32:58;;;;;;;11.82;1.90;;;;;;;;;;5032580;28;20104;-80
2022/02/18 13:35:25;;;;;;;7.57;1.38;;;;;;;;;;5032730;28;20045;-81
2022/02/18 13:37:51;;;;;;;8.45;1.67;;;;;;;;;;5034022;28;20022;-80
2022/02/18 13:40:17;;;;;;;7.82;1.70;;;;;;;;;;5034008;28;20025;-80
2022/02/18 13:42:54;;;;;;;11.13;1.60;;;;;;;;;;5032652;28;20048;-79
2022/02/18 13:45:20;;;;;;;9.60;1.33;;;;;;;;;;5032444;28;20021;-82
2022/02/18 13:47:47;;;;;;;8.55;1.20;;;;;;;;;;5032560;28;20022;-79
2022/02/18 13:50:14;;;;;;;12.05;2.35;;;;;;;;;;5031922;28;20033;-80
2022/02/18 13:52:41;;;;;;;10.70;1.30;;;;;;;;;;5033702;28;20079;-81
2022/02/18 13:55:08;;;;;;;9.15;1.63;;;;;;;;;;5033665;28;20040;-80
2022/02/18 13:57:35;;;;;;;7.68;1.33;;;;;;;;;;5032185;28;20021;-82
2022/02/18 14:00:02;;;;;;;5.78;1.15;;;;;;;;;;5033706;28;20040;-81
2022/02/18 14:02:28;;;;;;;12.20;1.33;;;;;;;;;;5032350;28;20022;-82
2022/02/18 14:04:55;;;;;;;5.32;1.08;;;;;;;;;;5032308;28;20037;-81
2022/02/18 14:07:25;;;;;;;4.15;1.20;;;;;;;;;;5032267;28;20025;-81
2022/02/18 14:09:56;;;;;;;10.07;1.30;;;;;;;;;;5031997;28;20026;-80
2022/02/18 14:12:41;;;;;;;6.53;1.65;;;;;;;;;;5033458;28;20026;-81
2022/02/18 14:15:10;;;;;;;4.85;1.05;;;;;;;;;;5032035;28;20042;-81
2022/02/18 14:17:42;;;;;;;8.93;1.15;;;;;;;;;;5032213;28;20056;-82
2022/02/18 14:20:11;;;;;;;5.65;0.80;;;;;;;;;;5031844;28;20079;-81
2022/02/18 14:22:38;;;;;;;4.03;1.00;;;;;;;;;;5034312;28;20359;-81
2022/02/18 14:25:23;;;;;;;4.30;1.33;;;;;;;;;;5032214;28;20045;-81
2022/02/18 14:27:50;;;;;;;8.77;1.02;;;;;;;;;;5033419;28;20075;-81
2022/02/18 14:30:16;;;;;;;9.23;1.85;;;;;;;;;;5031699;28;20160;-81
2022/02/18 14:32:43;;;;;;;13.77;1.45;;;;;;;;;;5033207;28;20030;-81
2022/02/18 14:35:11;;;;;;;5.30;1.25;;;;;;;;;;5033135;28;20100;-81
2022/02/18 14:37:39;;;;;;;8.52;1.40;;;;;;;;;;5032075;28;20072;-81
2022/02/18 14:40:12;;;;;;;7.25;1.42;;;;;;;;;;5031685;28;20064;-81
2022/02/18 14:42:39;;;;;;;11.88;2.30;;;;;;;;;;5031911;28;20052;-81
2022/02/18 14:45:08;;;;;;;8.20;2.50;;;;;;;;;;5031808;28;20030;-81